sensor_id;sensor_type;location;lat;lon;timestamp;pressure;altitude;pressure_sealevel;temperature
68939;BMP180;59064;45.294;11.816;2022-08-04T18:37:36;101191.40;;;31.82
68939;BMP180;59064;45.294;11.816;2022-08-04T18:40:08;101191.40;;;31.70
68939;BMP180;59064;45.294;11.816;2022-08-04T18:42:35;101196.80;;;31.50
68939;BMP180;59064;45.294;11.816;2022-08-04T18:45:02;101199.60;;;31.34
68939;BMP180;59064;45.294;11.816;2022-08-04T18:47:28;101199.00;;;31.20
68939;BMP180;59064;45.294;11.816;2022-08-04T18:49:54;101202.40;;;31.10
68939;BMP180;59064;45.294;11.816;2022-08-04T18:52:21;101202.40;;;30.90
68939;BMP180;59064;45.294;11.816;2022-08-04T18:54:47;101202.60;;;30.80
68939;BMP180;59064;45.294;11.816;2022-08-04T18:57:24;101200.20;;;30.60
68939;BMP180;59064;45.294;11.816;2022-08-04T18:59:52;101207.20;;;30.50
68939;BMP180;59064;45.294;11.816;2022-08-04T19:02:20;101208.60;;;30.40
68939;BMP180;59064;45.294;11.816;2022-08-04T19:04:46;101212.80;;;30.30
68939;BMP180;59064;45.294;11.816;2022-08-04T19:07:14;101210.60;;;30.20
68939;BMP180;59064;45.294;11.816;2022-08-04T19:09:41;101210.40;;;30.10
68939;BMP180;59064;45.294;11.816;2022-08-04T19:12:07;101212.60;;;29.96
68939;BMP180;59064;45.294;11.816;2022-08-04T19:14:33;101212.80;;;29.90
68939;BMP180;59064;45.294;11.816;2022-08-04T19:16:58;101216.60;;;29.78
68939;BMP180;59064;45.294;11.816;2022-08-04T19:19:24;101216.80;;;29.70
68939;BMP180;59064;45.294;11.816;2022-08-04T19:21:50;101217.80;;;29.60
68939;BMP180;59064;45.294;11.816;2022-08-04T19:24:16;101218.20;;;29.54
68939;BMP180;59064;45.294;11.816;2022-08-04T19:26:42;101223.20;;;29.50
68939;BMP180;59064;45.294;11.816;2022-08-04T19:29:07;101220.80;;;29.38
68939;BMP180;59064;45.294;11.816;2022-08-04T19:31:33;101224.00;;;29.20
68939;BMP180;59064;45.294;11.816;2022-08-04T19:34:00;101224.40;;;29.10
68939;BMP180;59064;45.294;11.816;2022-08-04T19:36:29;101225.00;;;29.00
68939;BMP180;59064;45.294;11.816;2022-08-04T19:38:59;101227.20;;;28.90
68939;BMP180;59064;45.294;11.816;2022-08-04T19:41:26;101230.60;;;28.80
68939;BMP180;59064;45.294;11.816;2022-08-04T19:43:52;101230.00;;;28.80
68939;BMP180;59064;45.294;11.816;2022-08-04T19:46:17;101236.20;;;28.80
68939;BMP180;59064;45.294;11.816;2022-08-04T19:48:43;101240.20;;;28.80
68939;BMP180;59064;45.294;11.816;2022-08-04T19:51:09;101241.20;;;28.80
68939;BMP180;59064;45.294;11.816;2022-08-04T19:53:35;101241.40;;;28.90
68939;BMP180;59064;45.294;11.816;2022-08-04T19:56:00;101243.00;;;28.90
68939;BMP180;59064;45.294;11.816;2022-08-04T19:58:26;101242.00;;;28.90
68939;BMP180;59064;45.294;11.816;2022-08-04T20:00:52;101247.80;;;28.98
68939;BMP180;59064;45.294;11.816;2022-08-04T20:03:18;101252.20;;;29.00
68939;BMP180;59064;45.294;11.816;2022-08-04T20:05:44;101247.00;;;28.90
68939;BMP180;59064;45.294;11.816;2022-08-04T20:08:10;101250.20;;;28.90
68939;BMP180;59064;45.294;11.816;2022-08-04T20:10:37;101249.40;;;28.90
68939;BMP180;59064;45.294;11.816;2022-08-04T20:13:04;101254.40;;;28.80
68939;BMP180;59064;45.294;11.816;2022-08-04T20:15:31;101253.00;;;28.80
68939;BMP180;59064;45.294;11.816;2022-08-04T20:17:57;101260.00;;;28.80
68939;BMP180;59064;45.294;11.816;2022-08-04T20:20:22;101256.60;;;28.70
68939;BMP180;59064;45.294;11.816;2022-08-04T20:22:48;101257.60;;;28.60
68939;BMP180;59064;45.294;11.816;2022-08-04T20:25:14;101256.40;;;28.54
68939;BMP180;59064;45.294;11.816;2022-08-04T20:27:39;101256.00;;;28.50
68939;BMP180;59064;45.294;11.816;2022-08-04T20:30:06;101252.00;;;28.40
68939;BMP180;59064;45.294;11.816;2022-08-04T20:32:32;101249.00;;;28.40
68939;BMP180;59064;45.294;11.816;2022-08-04T20:34:58;101247.60;;;28.30
68939;BMP180;59064;45.294;11.816;2022-08-04T20:37:26;101247.40;;;28.30
68939;BMP180;59064;45.294;11.816;2022-08-04T20:39:56;101244.60;;;28.20
68939;BMP180;59064;45.294;11.816;2022-08-04T20:42:27;101243.80;;;28.10
68939;BMP180;59064;45.294;11.816;2022-08-04T20:44:56;101242.40;;;28.10
68939;BMP180;59064;45.294;11.816;2022-08-04T20:47:22;101243.40;;;28.00
68939;BMP180;59064;45.294;11.816;2022-08-04T20:49:47;101243.60;;;28.00
68939;BMP180;59064;45.294;11.816;2022-08-04T20:52:13;101244.80;;;27.96
68939;BMP180;59064;45.294;11.816;2022-08-04T20:54:40;101251.60;;;28.00
68939;BMP180;59064;45.294;11.816;2022-08-04T20:57:06;101249.40;;;27.98
68939;BMP180;59064;45.294;11.816;2022-08-04T20:59:33;101248.40;;;28.00
68939;BMP180;59064;45.294;11.816;2022-08-04T21:02:05;101251.00;;;28.00
68939;BMP180;59064;45.294;11.816;2022-08-04T21:04:33;101247.60;;;28.00
68939;BMP180;59064;45.294;11.816;2022-08-04T21:07:08;101252.20;;;27.90
68939;BMP180;59064;45.294;11.816;2022-08-04T21:09:38;101248.60;;;27.86
68939;BMP180;59064;45.294;11.816;2022-08-04T21:12:05;101249.20;;;27.80
68939;BMP180;59064;45.294;11.816;2022-08-04T21:14:32;101245.00;;;27.80
68939;BMP180;59064;45.294;11.816;2022-08-04T21:16:59;101247.20;;;27.70
68939;BMP180;59064;45.294;11.816;2022-08-04T21:19:26;101250.80;;;27.70
68939;BMP180;59064;45.294;11.816;2022-08-04T21:21:53;101249.60;;;27.60
68939;BMP180;59064;45.294;11.816;2022-08-04T21:24:20;101248.20;;;27.54
68939;BMP180;59064;45.294;11.816;2022-08-04T21:26:51;101249.80;;;27.50
68939;BMP180;59064;45.294;11.816;2022-08-04T21:29:17;101248.00;;;27.50
68939;BMP180;59064;45.294;11.816;2022-08-04T21:31:44;101252.20;;;27.40
68939;BMP180;59064;45.294;11.816;2022-08-04T21:34:12;101257.40;;;27.40
68939;BMP180;59064;45.294;11.816;2022-08-04T21:36:39;101252.20;;;27.32
68939;BMP180;59064;45.294;11.816;2022-08-04T21:39:05;101253.60;;;27.30
68939;BMP180;59064;45.294;11.816;2022-08-04T21:41:32;101251.60;;;27.28
68939;BMP180;59064;45.294;11.816;2022-08-04T21:43:57;101254.40;;;27.20
68939;BMP180;59064;45.294;11.816;2022-08-04T21:46:23;101258.00;;;27.10
68939;BMP180;59064;45.294;11.816;2022-08-04T21:48:49;101257.60;;;27.00
68939;BMP180;59064;45.294;11.816;2022-08-04T21:51:20;101259.40;;;26.90
68939;BMP180;59064;45.294;11.816;2022-08-04T21:53:46;101262.00;;;26.80
68939;BMP180;59064;45.294;11.816;2022-08-04T21:56:12;101262.80;;;26.80
68939;BMP180;59064;45.294;11.816;2022-08-04T21:58:38;101266.40;;;26.70
68939;BMP180;59064;45.294;11.816;2022-08-04T22:01:05;101270.80;;;26.70
68939;BMP180;59064;45.294;11.816;2022-08-04T22:03:38;101274.00;;;26.60
68939;BMP180;59064;45.294;11.816;2022-08-04T22:06:03;101272.20;;;26.50
68939;BMP180;59064;45.294;11.816;2022-08-04T22:08:29;101279.40;;;26.40
68939;BMP180;59064;45.294;11.816;2022-08-04T22:10:55;101282.20;;;26.30
68939;BMP180;59064;45.294;11.816;2022-08-04T22:13:20;101282.20;;;26.30
68939;BMP180;59064;45.294;11.816;2022-08-04T22:15:46;101285.60;;;26.30
68939;BMP180;59064;45.294;11.816;2022-08-04T22:18:12;101284.20;;;26.20
68939;BMP180;59064;45.294;11.816;2022-08-04T22:20:37;101282.00;;;26.10
68939;BMP180;59064;45.294;11.816;2022-08-04T22:23:03;101281.00;;;26.00
68939;BMP180;59064;45.294;11.816;2022-08-04T22:25:29;101279.40;;;25.90
68939;BMP180;59064;45.294;11.816;2022-08-04T22:27:54;101282.60;;;26.00
68939;BMP180;59064;45.294;11.816;2022-08-04T22:30:33;101279.00;;;26.00
68939;BMP180;59064;45.294;11.816;2022-08-04T22:33:00;101282.00;;;25.96
68939;BMP180;59064;45.294;11.816;2022-08-04T22:35:25;101284.40;;;25.90
68939;BMP180;59064;45.294;11.816;2022-08-04T22:37:51;101274.40;;;25.90
68939;BMP180;59064;45.294;11.816;2022-08-04T22:40:19;101272.80;;;25.92
68939;BMP180;59064;45.294;11.816;2022-08-04T22:42:44;101272.60;;;26.00
68939;BMP180;59064;45.294;11.816;2022-08-04T22:45:10;101274.20;;;26.00
68939;BMP180;59064;45.294;11.816;2022-08-04T22:47:37;101273.60;;;26.10
68939;BMP180;59064;45.294;11.816;2022-08-04T22:50:05;101277.40;;;26.20
68939;BMP180;59064;45.294;11.816;2022-08-04T22:52:31;101276.80;;;26.30
68939;BMP180;59064;45.294;11.816;2022-08-04T22:54:58;101271.40;;;26.30
68939;BMP180;59064;45.294;11.816;2022-08-04T22:57:24;101273.00;;;26.20
68939;BMP180;59064;45.294;11.816;2022-08-04T22:59:50;101270.60;;;26.22
68939;BMP180;59064;45.294;11.816;2022-08-04T23:02:16;101268.80;;;26.40
68939;BMP180;59064;45.294;11.816;2022-08-04T23:04:41;101268.40;;;26.50
68939;BMP180;59064;45.294;11.816;2022-08-04T23:07:07;101269.40;;;26.60
68939;BMP180;59064;45.294;11.816;2022-08-04T23:09:33;101270.80;;;26.60
68939;BMP180;59064;45.294;11.816;2022-08-04T23:11:59;101271.60;;;26.60
68939;BMP180;59064;45.294;11.816;2022-08-04T23:14:25;101267.40;;;26.70
68939;BMP180;59064;45.294;11.816;2022-08-04T23:16:50;101271.60;;;26.60
68939;BMP180;59064;45.294;11.816;2022-08-04T23:19:16;101274.60;;;26.56
68939;BMP180;59064;45.294;11.816;2022-08-04T23:21:44;101276.40;;;26.50
68939;BMP180;59064;45.294;11.816;2022-08-04T23:24:09;101279.80;;;26.40
68939;BMP180;59064;45.294;11.816;2022-08-04T23:26:35;101278.40;;;26.30
68939;BMP180;59064;45.294;11.816;2022-08-04T23:29:01;101275.40;;;26.08
68939;BMP180;59064;45.294;11.816;2022-08-04T23:31:26;101274.60;;;25.60
68939;BMP180;59064;45.294;11.816;2022-08-04T23:33:52;101277.60;;;25.30
68939;BMP180;59064;45.294;11.816;2022-08-04T23:36:19;101274.60;;;25.14
68939;BMP180;59064;45.294;11.816;2022-08-04T23:38:44;101270.20;;;25.10
68939;BMP180;59064;45.294;11.816;2022-08-04T23:41:12;101264.20;;;25.10
68939;BMP180;59064;45.294;11.816;2022-08-04T23:43:41;101264.00;;;25.10
68939;BMP180;59064;45.294;11.816;2022-08-04T23:46:09;101264.40;;;25.10
68939;BMP180;59064;45.294;11.816;2022-08-04T23:48:36;101267.60;;;25.10
68939;BMP180;59064;45.294;11.816;2022-08-04T23:51:13;101266.60;;;25.00
68939;BMP180;59064;45.294;11.816;2022-08-04T23:53:39;101259.60;;;25.00
68939;BMP180;59064;45.294;11.816;2022-08-04T23:56:10;101262.60;;;24.98
68939;BMP180;59064;45.294;11.816;2022-08-04T23:58:38;101266.00;;;25.00
